Time;durP1;ratioP1;P1;durP2;ratioP2;P2;SDS_P1;SDS_P2;PMS_P1;PMS_P2;Temp;Humidity;BMP_temperature;BMP_pressure;BME280_temperature;BME280_humidity;BME280_pressure;Samples;Min_cycle;Max_cycle;Signal;HPM_P1;HPM_P2
2022/11/14 00:00:24;;;;;;;258.08;137.55;;;7.90;99.90;;;;;;5115295;28;20412;-73
2022/11/14 00:03:09;;;;;;;275.42;142.18;;;7.90;99.90;;;;;;5116237;28;20043;-73
2022/11/14 00:05:53;;;;;;;295.08;149.23;;;7.90;99.90;;;;;;5115967;28;20081;-73
2022/11/14 00:08:38;;;;;;;300.00;150.73;;;8.00;99.90;;;;;;5116262;28;20554;-73
2022/11/14 00:11:23;;;;;;;330.75;175.63;;;8.00;99.90;;;;;;5134375;27;20150;-73
2022/11/14 00:14:11;;;;;;;277.30;144.30;;;7.90;99.90;;;;;;5136411;27;20068;-72
2022/11/14 00:16:56;;;;;;;243.73;135.63;;;8.10;99.90;;;;;;5136477;27;20084;-73
2022/11/14 00:19:40;;;;;;;271.10;141.15;;;8.10;99.90;;;;;;5136818;27;20502;-73
2022/11/14 00:22:25;;;;;;;311.15;160.35;;;8.00;99.90;;;;;;5136410;27;20038;-72
2022/11/14 00:25:10;;;;;;;306.30;160.60;;;7.90;99.90;;;;;;5136402;27;20073;-72
2022/11/14 00:27:57;;;;;;;330.13;168.40;;;7.90;99.90;;;;;;5136238;27;20487;-73
2022/11/14 00:30:46;;;;;;;329.80;172.23;;;7.90;99.90;;;;;;5135993;27;20042;-73
2022/11/14 00:33:30;;;;;;;350.80;178.60;;;8.10;99.90;;;;;;5136467;27;20486;-72
2022/11/14 00:36:15;;;;;;;347.42;181.98;;;8.00;99.90;;;;;;5136167;27;20065;-73
2022/11/14 00:39:00;;;;;;;349.88;182.60;;;7.90;99.90;;;;;;5136244;27;20037;-73
2022/11/14 00:41:45;;;;;;;274.10;139.57;;;7.90;99.90;;;;;;5136262;27;20076;-72
2022/11/14 00:44:29;;;;;;;276.30;144.68;;;7.90;99.90;;;;;;5135942;27;20056;-72
2022/11/14 00:47:14;;;;;;;291.02;153.93;;;7.80;99.90;;;;;;5136177;27;20042;-73
2022/11/14 00:49:58;;;;;;;301.88;155.75;;;7.60;99.90;;;;;;5135963;27;20042;-72
2022/11/14 00:52:43;;;;;;;331.38;172.05;;;7.70;99.90;;;;;;5136036;27;20049;-72
2022/11/14 00:55:28;;;;;;;325.80;167.13;;;7.60;99.90;;;;;;5135744;27;20089;-73
2022/11/14 00:58:12;;;;;;;319.27;168.50;;;7.60;99.90;;;;;;5135896;27;20139;-72
2022/11/14 01:00:57;;;;;;;355.95;185.35;;;7.60;99.90;;;;;;5135210;27;20076;-73
2022/11/14 01:03:42;;;;;;;347.02;186.18;;;7.60;99.90;;;;;;5135610;27;20519;-73
2022/11/14 01:06:27;;;;;;;343.10;173.73;;;7.60;99.90;;;;;;5135875;27;20392;-72
2022/11/14 01:09:11;;;;;;;337.38;176.95;;;7.60;99.90;;;;;;5130126;27;20050;-72
2022/11/14 01:11:56;;;;;;;324.65;165.65;;;7.50;99.90;;;;;;5115016;28;20123;-73
2022/11/14 01:14:40;;;;;;;314.60;166.32;;;7.60;99.90;;;;;;5115027;28;20159;-73
2022/11/14 01:17:27;;;;;;;312.52;162.50;;;7.60;99.90;;;;;;5114787;28;20088;-72
2022/11/14 01:20:11;;;;;;;327.55;167.93;;;7.50;99.90;;;;;;5115242;28;20100;-72
2022/11/14 01:22:56;;;;;;;307.80;158.30;;;7.50;99.90;;;;;;5115163;28;20092;-72
2022/11/14 01:25:41;;;;;;;289.77;149.98;;;7.50;99.90;;;;;;5114906;28;20111;-72
2022/11/14 01:28:25;;;;;;;298.73;156.68;;;7.40;99.90;;;;;;5114875;28;20497;-72
2022/11/14 01:31:23;;;;;;;321.02;163.50;;;7.50;99.90;;;;;;5114785;28;20054;-72
2022/11/14 01:34:08;;;;;;;298.23;154.07;;;7.40;99.90;;;;;;5114971;28;20110;-72
2022/11/14 01:36:52;;;;;;;312.67;155.80;;;7.30;99.90;;;;;;5114770;28;20039;-72
2022/11/14 01:39:37;;;;;;;312.35;160.30;;;7.30;99.90;;;;;;5114955;28;20039;-72
2022/11/14 01:42:21;;;;;;;311.05;160.75;;;7.20;99.90;;;;;;5115085;28;20089;-72
2022/11/14 01:46:04;;;;;;;295.08;153.20;;;7.10;99.90;;;;;;5114917;28;20097;-72
2022/11/14 01:49:14;;;;;;;296.05;153.07;;;7.00;99.90;;;;;;5012023;28;20048;-72
2022/11/14 01:52:04;;;;;;;247.73;131.45;;;7.00;99.90;;;;;;5011081;28;20184;-72
2022/11/14 01:54:54;;;;;;;250.57;132.13;;;6.90;99.90;;;;;;5012308;28;20057;-72
2022/11/14 01:57:44;;;;;;;232.13;125.22;;;7.00;99.90;;;;;;5012355;28;20052;-73
2022/11/14 02:00:28;;;;;;;250.02;129.55;;;7.00;99.90;;;;;;5011906;28;20044;-72
2022/11/14 02:03:14;;;;;;;251.00;129.88;;;6.90;99.90;;;;;;5011996;28;20089;-72
2022/11/14 02:06:01;;;;;;;266.92;139.65;;;6.90;99.90;;;;;;5011893;28;20423;-72
2022/11/14 02:08:48;;;;;;;256.10;135.52;;;6.60;99.90;;;;;;5013775;28;20053;-73
2022/11/14 02:11:38;;;;;;;249.15;133.80;;;6.50;99.90;;;;;;5033893;28;20052;-72
2022/11/14 02:14:23;;;;;;;271.17;135.88;;;6.40;99.90;;;;;;5035522;28;20107;-72
2022/11/14 02:17:07;;;;;;;241.52;125.88;;;6.40;99.90;;;;;;5035100;28;20513;-72
2022/11/14 02:20:10;;;;;;;242.88;124.07;;;6.30;99.90;;;;;;5111448;27;20045;-73
2022/11/14 02:22:54;;;;;;;246.40;125.65;;;6.40;99.90;;;;;;5138875;27;20106;-72
2022/11/14 02:25:39;;;;;;;229.48;122.00;;;6.40;99.90;;;;;;5114706;27;20046;-72
2022/11/14 02:28:25;;;;;;;229.55;122.72;;;6.50;99.90;;;;;;5138537;27;20064;-72
2022/11/14 02:31:09;;;;;;;226.88;119.95;;;6.60;99.90;;;;;;5138633;27;20050;-72
2022/11/14 02:33:54;;;;;;;235.32;125.35;;;6.70;99.90;;;;;;5138481;27;20064;-72
2022/11/14 02:36:38;;;;;;;264.52;138.13;;;6.60;99.90;;;;;;5138420;27;20438;-73
2022/11/14 02:39:23;;;;;;;265.55;138.95;;;6.40;99.90;;;;;;5138561;27;20111;-72
2022/11/14 02:42:08;;;;;;;248.05;132.95;;;6.40;99.90;;;;;;5138411;27;20038;-72
2022/11/14 02:44:53;;;;;;;239.75;124.15;;;6.40;99.90;;;;;;5138416;27;20421;-72
2022/11/14 02:47:37;;;;;;;250.50;131.63;;;6.40;99.90;;;;;;5138745;27;20096;-73
2022/11/14 02:50:22;;;;;;;256.65;134.43;;;6.40;99.90;;;;;;5138185;27;20533;-73
2022/11/14 02:53:07;;;;;;;232.65;123.05;;;6.30;99.90;;;;;;5138256;27;20068;-72
2022/11/14 02:55:51;;;;;;;231.63;121.40;;;6.10;99.90;;;;;;5137925;27;20596;-72
2022/11/14 02:58:36;;;;;;;253.13;129.50;;;6.20;99.90;;;;;;5137923;27;20050;-72
2022/11/14 03:01:20;;;;;;;257.35;132.95;;;6.20;99.90;;;;;;5138064;27;20038;-72
2022/11/14 03:04:05;;;;;;;240.43;126.80;;;6.10;99.90;;;;;;5137870;27;20087;-72
2022/11/14 03:06:50;;;;;;;251.77;132.27;;;6.00;99.90;;;;;;5138234;27;20047;-72
2022/11/14 03:09:34;;;;;;;240.13;129.30;;;5.90;99.90;;;;;;5129331;27;20054;-72
2022/11/14 03:12:19;;;;;;;265.40;133.57;;;6.00;99.90;;;;;;5117137;28;20043;-72
2022/11/14 03:15:05;;;;;;;255.05;133.63;;;6.00;99.90;;;;;;5117093;28;20047;-72
2022/11/14 03:17:50;;;;;;;243.00;130.50;;;6.00;99.90;;;;;;5116874;28;20074;-72
2022/11/14 03:20:35;;;;;;;247.82;129.30;;;5.90;99.90;;;;;;5116901;28;20172;-72
2022/11/14 03:23:19;;;;;;;243.95;127.50;;;5.90;99.90;;;;;;5116420;28;20077;-72
2022/11/14 03:26:06;;;;;;;246.32;130.30;;;5.80;99.90;;;;;;5116753;28;20565;-72
2022/11/14 03:28:51;;;;;;;247.02;127.03;;;5.70;99.90;;;;;;5116804;28;20050;-72
2022/11/14 03:31:35;;;;;;;232.95;124.47;;;5.70;99.90;;;;;;5116844;28;20047;-72
2022/11/14 03:34:20;;;;;;;238.55;120.45;;;5.70;99.90;;;;;;5116624;28;20435;-72
2022/11/14 03:37:05;;;;;;;259.92;129.65;;;5.70;99.90;;;;;;5116670;28;20039;-72
2022/11/14 03:39:49;;;;;;;260.13;133.60;;;5.90;99.90;;;;;;5116836;28;20390;-72
2022/11/14 03:42:34;;;;;;;245.32;130.30;;;6.00;99.90;;;;;;5116507;28;20066;-72
2022/11/14 03:45:19;;;;;;;235.35;125.28;;;6.10;99.90;;;;;;5116782;28;20698;-72
2022/11/14 03:48:05;;;;;;;234.50;123.65;;;6.10;99.90;;;;;;5100896;28;20038;-72
2022/11/14 03:50:49;;;;;;;239.82;128.07;;;6.00;99.90;;;;;;5116368;28;20503;-72
2022/11/14 03:53:34;;;;;;;250.65;131.27;;;6.10;99.90;;;;;;5116282;28;20042;-72
2022/11/14 03:56:19;;;;;;;238.82;123.43;;;6.00;99.90;;;;;;5116379;28;20042;-72
2022/11/14 03:59:03;;;;;;;248.73;126.45;;;6.00;99.90;;;;;;5116149;28;20059;-72
2022/11/14 04:01:48;;;;;;;236.20;121.15;;;6.00;99.90;;;;;;5116330;28;20042;-72
2022/11/14 04:04:33;;;;;;;230.88;122.55;;;5.90;99.90;;;;;;5116138;28;20527;-72
2022/11/14 04:07:17;;;;;;;238.70;125.15;;;5.80;99.90;;;;;;5116350;28;20050;-73
2022/11/14 04:10:02;;;;;;;248.10;130.27;;;6.00;99.90;;;;;;5128663;27;20064;-72
2022/11/14 04:12:48;;;;;;;254.70;129.18;;;6.10;99.90;;;;;;5136728;27;20072;-72
2022/11/14 04:15:33;;;;;;;233.00;118.78;;;6.10;99.90;;;;;;5136500;27;20122;-72
2022/11/14 04:18:18;;;;;;;232.60;121.53;;;6.10;99.90;;;;;;5136890;27;20042;-72
2022/11/14 04:21:02;;;;;;;269.27;143.95;;;6.10;99.90;;;;;;5120877;27;20034;-72
2022/11/14 04:23:47;;;;;;;285.25;140.70;;;6.10;99.90;;;;;;5136644;27;20123;-72
2022/11/14 04:26:32;;;;;;;295.15;143.98;;;6.00;99.90;;;;;;5136623;27;20104;-72
2022/11/14 04:29:16;;;;;;;296.85;138.85;;;6.00;99.90;;;;;;5136310;27;20038;-72
2022/11/14 04:32:01;;;;;;;312.52;148.75;;;6.00;99.90;;;;;;5136536;27;20057;-72
2022/11/14 04:34:45;;;;;;;338.23;156.68;;;6.00;99.90;;;;;;5136178;27;20482;-72
2022/11/14 04:37:30;;;;;;;309.08;143.38;;;6.00;99.90;;;;;;5136037;27;20088;-72
2022/11/14 04:40:15;;;;;;;281.00;136.57;;;5.90;99.90;;;;;;5136613;27;20050;-72
2022/11/14 04:42:59;;;;;;;305.45;148.90;;;6.10;99.90;;;;;;5136238;27;20076;-72
2022/11/14 04:45:44;;;;;;;303.98;145.25;;;6.10;99.90;;;;;;5136147;27;20459;-72
2022/11/14 04:48:29;;;;;;;280.75;139.00;;;6.20;99.90;;;;;;5136039;27;20495;-72
2022/11/14 04:51:13;;;;;;;294.05;140.63;;;6.20;99.90;;;;;;5135937;27;20070;-72
2022/11/14 04:53:58;;;;;;;330.65;158.43;;;6.40;99.90;;;;;;5130371;27;20042;-72
2022/11/14 04:56:43;;;;;;;290.85;142.23;;;6.40;99.90;;;;;;5135803;27;20091;-72
2022/11/14 04:59:27;;;;;;;307.70;148.13;;;6.50;99.90;;;;;;5135637;27;20050;-72
2022/11/14 05:02:12;;;;;;;278.35;141.82;;;6.50;99.90;;;;;;5135824;27;20034;-73
2022/11/14 05:04:57;;;;;;;253.75;131.10;;;6.50;99.90;;;;;;5135600;27;20533;-72
2022/11/14 05:07:42;;;;;;;255.60;129.25;;;6.50;99.90;;;;;;5135632;27;20030;-72
2022/11/14 05:10:26;;;;;;;297.83;142.73;;;6.60;99.90;;;;;;5104401;28;20035;-72
2022/11/14 05:13:12;;;;;;;283.30;136.45;;;6.60;99.90;;;;;;5115137;28;20073;-72
2022/11/14 05:16:00;;;;;;;245.70;125.45;;;6.50;99.90;;;;;;5114917;28;20492;-72
2022/11/14 05:18:44;;;;;;;235.82;119.85;;;6.40;99.90;;;;;;5114989;28;20062;-72
2022/11/14 05:21:29;;;;;;;215.25;114.75;;;6.60;99.90;;;;;;5114903;28;20144;-72
2022/11/14 05:24:13;;;;;;;289.20;133.60;;;6.80;99.90;;;;;;5114940;28;20047;-72
2022/11/14 05:26:58;;;;;;;392.15;157.80;;;6.80;99.90;;;;;;5115010;28;20043;-72
2022/11/14 05:29:43;;;;;;;275.63;133.45;;;6.60;99.90;;;;;;5114857;28;20412;-72
2022/11/14 05:32:27;;;;;;;299.98;132.68;;;6.70;99.90;;;;;;5115087;28;20118;-72
2022/11/14 05:35:12;;;;;;;298.95;138.25;;;6.70;99.90;;;;;;5114642;28;20577;-72
2022/11/14 05:37:59;;;;;;;283.52;130.63;;;6.70;99.90;;;;;;5114805;28;20042;-72
2022/11/14 05:40:43;;;;;;;306.65;141.73;;;6.70;99.90;;;;;;5114697;28;20030;-72
2022/11/14 05:43:28;;;;;;;367.38;157.63;;;6.70;99.90;;;;;;5114886;28;20123;-72
2022/11/14 05:46:15;;;;;;;329.67;146.23;;;6.70;99.90;;;;;;5116320;28;20042;-72
2022/11/14 05:49:00;;;;;;;368.63;155.63;;;6.70;99.90;;;;;;5118608;28;20061;-72
2022/11/14 05:51:44;;;;;;;360.10;149.32;;;6.70;99.90;;;;;;5119006;28;20521;-72
2022/11/14 05:54:29;;;;;;;351.92;146.88;;;6.70;99.90;;;;;;5118680;28;20492;-72
2022/11/14 05:57:13;;;;;;;420.35;152.65;;;6.60;99.90;;;;;;5118836;28;20099;-72
2022/11/14 05:59:58;;;;;;;330.98;141.52;;;6.60;99.90;;;;;;5118468;28;20051;-72
2022/11/14 06:02:44;;;;;;;432.38;163.02;;;6.60;99.90;;;;;;5118296;28;20055;-72
2022/11/14 06:05:29;;;;;;;444.40;161.65;;;6.50;99.90;;;;;;5118719;28;20047;-72
2022/11/14 06:08:14;;;;;;;396.08;164.50;;;6.40;99.90;;;;;;5118372;28;20038;-72
2022/11/14 06:11:12;;;;;;;471.75;156.60;;;6.50;99.90;;;;;;5138868;27;20089;-72
2022/11/14 06:13:56;;;;;;;426.67;146.63;;;6.50;99.90;;;;;;5138833;27;20062;-72
2022/11/14 06:16:41;;;;;;;442.73;151.05;;;6.60;99.90;;;;;;5138440;27;20216;-72
2022/11/14 06:19:26;;;;;;;454.40;151.00;;;6.60;99.90;;;;;;5138962;27;20401;-72
2022/11/14 06:22:11;;;;;;;462.05;150.52;;;6.70;99.90;;;;;;5138596;27;20034;-72
2022/11/14 06:24:55;;;;;;;413.80;141.35;;;6.70;99.90;;;;;;5129784;27;20027;-72
2022/11/14 06:27:40;;;;;;;433.17;137.95;;;6.70;99.90;;;;;;5089887;28;20077;-72
2022/11/14 06:30:24;;;;;;;441.77;136.32;;;6.60;99.90;;;;;;5106953;28;20542;-72
2022/11/14 06:33:09;;;;;;;354.23;129.07;;;6.70;99.90;;;;;;5118551;28;20552;-72
2022/11/14 06:35:58;;;;;;;349.88;123.68;;;6.70;99.90;;;;;;5117893;28;20122;-72
2022/11/14 06:38:43;;;;;;;355.38;122.05;;;6.80;99.90;;;;;;5101657;27;20038;-72
2022/11/14 06:41:27;;;;;;;451.85;130.93;;;6.60;99.90;;;;;;5117643;28;20039;-72
2022/11/14 06:44:13;;;;;;;332.90;122.78;;;6.60;99.90;;;;;;5117797;28;20096;-72
2022/11/14 06:46:58;;;;;;;316.77;117.47;;;6.60;99.90;;;;;;5114643;28;20047;-72
2022/11/14 06:49:42;;;;;;;437.27;124.85;;;6.90;99.90;;;;;;5103326;27;20085;-72
2022/11/14 06:52:28;;;;;;;277.88;111.13;;;6.70;99.90;;;;;;5106103;28;20046;-72
2022/11/14 06:55:12;;;;;;;441.42;120.40;;;6.70;99.90;;;;;;5098455;28;20448;-71
2022/11/14 06:57:57;;;;;;;293.33;116.20;;;6.70;99.90;;;;;;5104787;28;20031;-71
2022/11/14 07:00:41;;;;;;;255.40;102.63;;;6.70;99.90;;;;;;5114567;28;20198;-71
2022/11/14 07:03:26;;;;;;;252.07;104.45;;;6.80;99.90;;;;;;5103297;28;20035;-71
2022/11/14 07:06:14;;;;;;;284.50;108.22;;;6.80;99.90;;;;;;5103061;28;20062;-71
2022/11/14 07:09:04;;;;;;;244.65;102.95;;;6.90;99.90;;;;;;5103947;28;20051;-71
2022/11/14 07:12:15;;;;;;;242.25;104.53;;;6.90;99.90;;;;;;5086571;28;20113;-71
2022/11/14 07:15:49;;;;;;;250.82;100.80;;;7.10;99.90;;;;;;5108627;28;20119;-72
2022/11/14 07:18:44;;;;;;;249.30;100.68;;;7.20;99.90;;;;;;5097887;28;20046;-72
2022/11/14 07:21:34;;;;;;;228.52;90.57;;;7.20;99.90;;;;;;5111183;27;20042;-72
2022/11/14 07:24:18;;;;;;;221.38;91.30;;;7.20;99.90;;;;;;5104313;27;20558;-72
2022/11/14 07:27:07;;;;;;;223.18;95.82;;;7.20;99.90;;;;;;5099877;28;20104;-72
2022/11/14 07:29:51;;;;;;;225.25;93.70;;;7.20;99.90;;;;;;5117533;28;20097;-72
2022/11/14 07:32:36;;;;;;;227.68;97.45;;;7.30;99.90;;;;;;5116407;28;20058;-72
2022/11/14 07:35:21;;;;;;;207.98;91.30;;;7.40;99.90;;;;;;5116444;28;20393;-72
2022/11/14 07:38:06;;;;;;;232.30;95.63;;;7.30;99.90;;;;;;5116418;28;20389;-72
2022/11/14 07:40:55;;;;;;;233.75;97.07;;;7.40;99.90;;;;;;5100913;28;20039;-72
2022/11/14 07:43:40;;;;;;;220.38;95.55;;;7.30;99.90;;;;;;5116417;28;20042;-72
2022/11/14 07:46:25;;;;;;;281.58;112.80;;;7.20;99.90;;;;;;5115451;27;20499;-72
2022/11/14 07:49:09;;;;;;;266.25;109.55;;;7.40;99.90;;;;;;5088294;28;20043;-72
2022/11/14 07:51:54;;;;;;;249.15;106.03;;;7.40;99.90;;;;;;5103776;28;20058;-72
2022/11/14 07:54:38;;;;;;;269.17;108.65;;;7.30;99.90;;;;;;5095559;28;20062;-72
2022/11/14 07:57:23;;;;;;;259.88;105.38;;;7.30;99.90;;;;;;5095298;28;20101;-72
2022/11/14 08:00:09;;;;;;;233.15;100.90;;;7.30;99.90;;;;;;5124778;27;20137;-72
2022/11/14 08:02:53;;;;;;;231.05;99.25;;;7.50;99.90;;;;;;5127661;27;20206;-72
2022/11/14 08:05:41;;;;;;;243.00;99.82;;;7.50;99.90;;;;;;5134058;27;20061;-72
2022/11/14 08:08:25;;;;;;;247.52;103.57;;;7.50;99.90;;;;;;5120265;27;20053;-72
2022/11/14 08:11:10;;;;;;;277.30;111.72;;;7.50;99.90;;;;;;5127100;27;20671;-72
2022/11/14 08:13:55;;;;;;;314.35;118.35;;;7.50;99.90;;;;;;5114004;27;20047;-72
2022/11/14 08:16:40;;;;;;;322.45;117.28;;;7.70;99.90;;;;;;5115188;27;20126;-72
2022/11/14 08:19:24;;;;;;;306.73;114.57;;;7.90;99.90;;;;;;5131281;27;20729;-72
2022/11/14 08:22:09;;;;;;;322.88;119.32;;;7.90;99.90;;;;;;5136647;27;20061;-72
2022/11/14 08:24:54;;;;;;;365.60;129.70;;;7.90;99.90;;;;;;5107417;27;20450;-72
2022/11/14 08:27:38;;;;;;;375.80;131.40;;;7.90;99.90;;;;;;5111320;28;20043;-72
2022/11/14 08:30:24;;;;;;;394.33;132.30;;;8.00;99.90;;;;;;5114744;28;20054;-72
2022/11/14 08:33:08;;;;;;;368.98;131.80;;;8.20;99.90;;;;;;5103536;28;20047;-72
2022/11/14 08:35:53;;;;;;;322.67;125.40;;;8.30;99.90;;;;;;5112209;27;20078;-72
2022/11/14 08:38:38;;;;;;;318.67;120.18;;;8.30;99.90;;;;;;5133893;27;20034;-72
2022/11/14 08:41:23;;;;;;;292.23;114.55;;;8.40;99.90;;;;;;5115251;27;20741;-72
2022/11/14 08:44:09;;;;;;;304.85;117.90;;;8.40;99.90;;;;;;5116949;27;20065;-72
2022/11/14 08:46:53;;;;;;;299.48;119.82;;;8.60;99.90;;;;;;5112537;27;20532;-72
2022/11/14 08:49:38;;;;;;;275.85;115.68;;;8.60;99.90;;;;;;5126574;27;20608;-72
2022/11/14 08:52:22;;;;;;;266.85;112.18;;;8.70;99.90;;;;;;5109255;28;20389;-72
2022/11/14 08:55:07;;;;;;;260.60;112.10;;;8.80;99.90;;;;;;5098617;28;20524;-72
2022/11/14 08:57:52;;;;;;;271.50;111.88;;;9.00;99.90;;;;;;5117700;27;20039;-72
2022/11/14 09:00:37;;;;;;;270.35;114.60;;;9.10;99.90;;;;;;5102385;28;20082;-72
2022/11/14 09:03:22;;;;;;;281.38;115.70;;;9.10;99.90;;;;;;5099295;28;20073;-72
2022/11/14 09:06:06;;;;;;;269.52;116.53;;;9.00;99.90;;;;;;5102466;28;20039;-72
2022/11/14 09:08:54;;;;;;;288.63;115.85;;;9.20;99.90;;;;;;5118253;27;20091;-73
2022/11/14 09:11:39;;;;;;;313.65;123.25;;;9.40;99.90;;;;;;5109324;28;20508;-72
2022/11/14 09:14:23;;;;;;;373.50;131.25;;;9.40;99.90;;;;;;5117000;27;20046;-72
2022/11/14 09:17:08;;;;;;;403.05;140.25;;;9.50;99.90;;;;;;5102993;28;20043;-72
2022/11/14 09:19:53;;;;;;;428.05;147.65;;;9.50;99.90;;;;;;5095685;28;20139;-72
2022/11/14 09:22:37;;;;;;;426.65;151.20;;;9.60;99.90;;;;;;5105701;28;20051;-72
2022/11/14 09:25:21;;;;;;;447.80;150.32;;;9.60;99.90;;;;;;5103054;28;20088;-73
2022/11/14 09:28:07;;;;;;;462.35;154.00;;;9.70;99.90;;;;;;5096536;28;20050;-73
2022/11/14 09:30:52;;;;;;;464.83;156.45;;;9.70;99.90;;;;;;5103451;28;20194;-73
2022/11/14 09:33:39;;;;;;;488.10;160.10;;;9.70;99.90;;;;;;5100353;28;20039;-72
2022/11/14 09:36:24;;;;;;;456.63;154.23;;;9.70;99.90;;;;;;5104255;28;20443;-73
2022/11/14 09:39:08;;;;;;;495.98;161.88;;;9.80;99.90;;;;;;5114120;28;20138;-73
2022/11/14 09:42:14;;;;;;;481.45;157.10;;;9.60;99.90;;;;;;5120640;28;20042;-72
2022/11/14 09:45:01;;;;;;;477.55;160.70;;;9.80;99.90;;;;;;5117659;28;20031;-73
2022/11/14 09:47:51;;;;;;;471.50;156.32;;;10.00;99.90;;;;;;5106596;28;20031;-73
2022/11/14 09:50:52;;;;;;;464.95;158.45;;;10.20;99.90;;;;;;5114430;28;20550;-73
2022/11/14 09:53:59;;;;;;;500.35;157.98;;;10.30;99.90;;;;;;5112930;28;20132;-73
2022/11/14 09:56:44;;;;;;;453.15;154.15;;;10.10;99.90;;;;;;5100739;28;20497;-73
2022/11/14 09:59:30;;;;;;;450.17;155.73;;;10.40;99.90;;;;;;5110930;28;20131;-73
2022/11/14 10:02:27;;;;;;;462.00;157.75;;;10.60;99.90;;;;;;5102675;28;20588;-73
2022/11/14 10:05:21;;;;;;;465.35;157.57;;;10.70;99.90;;;;;;5117028;28;20061;-73
2022/11/14 10:08:26;;;;;;;478.90;155.75;;;10.80;99.90;;;;;;5113208;28;20393;-73
2022/11/14 10:11:28;;;;;;;465.42;159.15;;;11.00;99.90;;;;;;5099468;28;20051;-73
2022/11/14 10:14:40;;;;;;;480.02;165.15;;;11.40;99.90;;;;;;5099150;28;20051;-73
2022/11/14 10:18:02;;;;;;;467.80;158.13;;;11.60;99.90;;;;;;5123759;28;20046;-73
2022/11/14 10:20:55;;;;;;;433.75;148.80;;;12.20;99.90;;;;;;5129223;28;20095;-74
2022/11/14 10:24:04;;;;;;;399.48;143.38;;;12.90;99.90;;;;;;5109250;28;20038;-74
2022/11/14 10:27:04;;;;;;;415.50;146.82;;;13.60;99.90;;;;;;5108190;28;20089;-74
2022/11/14 10:30:01;;;;;;;422.40;144.18;;;14.20;99.90;;;;;;5113744;28;20062;-74
2022/11/14 10:33:35;;;;;;;404.33;146.40;;;14.80;99.90;;;;;;5104698;28;20069;-74
2022/11/14 10:36:37;;;;;;;423.23;148.77;;;16.00;97.10;;;;;;5095652;27;20041;-75
2022/11/14 10:39:45;;;;;;;397.58;142.25;;;16.30;93.50;;;;;;5104786;27;20115;-74
2022/11/14 10:42:42;;;;;;;407.77;149.20;;;16.30;92.90;;;;;;5104616;28;20046;-74
2022/11/14 10:45:42;;;;;;;398.58;143.77;;;16.60;88.90;;;;;;5102444;28;20050;-74
2022/11/14 10:48:39;;;;;;;375.67;139.57;;;17.20;88.80;;;;;;5111655;27;20042;-75
2022/11/14 10:51:45;;;;;;;408.65;142.90;;;17.30;86.00;;;;;;5111682;27;20567;-75
2022/11/14 10:54:43;;;;;;;393.15;145.38;;;18.00;83.70;;;;;;5112159;27;20093;-75
2022/11/14 10:57:27;;;;;;;394.42;140.35;;;18.10;78.40;;;;;;5122370;27;20026;-75
2022/11/14 11:00:18;;;;;;;390.55;142.27;;;17.60;80.40;;;;;;5112646;27;20057;-75
2022/11/14 11:03:03;;;;;;;393.65;138.73;;;17.30;81.00;;;;;;5117570;27;20043;-74
2022/11/14 11:05:58;;;;;;;412.75;144.48;;;17.20;82.00;;;;;;5120172;27;20041;-74
2022/11/14 11:12:01;;;;;;;493.95;162.85;;;17.20;83.30;;;;;;5120410;27;20038;-74
2022/11/14 11:15:06;;;;;;;465.50;157.00;;;17.60;81.80;;;;;;5111961;28;20103;-75
2022/11/14 11:18:02;;;;;;;456.15;156.15;;;18.00;83.00;;;;;;5107873;28;20523;-75
2022/11/14 11:21:03;;;;;;;473.92;158.40;;;18.00;78.20;;;;;;5103650;28;20114;-76
2022/11/14 11:23:55;;;;;;;463.45;156.15;;;18.40;77.60;;;;;;5104726;28;20047;-75
2022/11/14 11:26:39;;;;;;;464.63;152.27;;;18.50;75.60;;;;;;5100842;28;20092;-75
2022/11/14 11:29:24;;;;;;;445.48;152.57;;;18.60;76.10;;;;;;5099082;28;20043;-75
2022/11/14 11:32:09;;;;;;;391.55;139.35;;;18.70;73.40;;;;;;5096286;28;20096;-75
2022/11/14 11:34:55;;;;;;;381.30;139.02;;;18.80;73.40;;;;;;5117259;28;20063;-75
2022/11/14 11:38:01;;;;;;;346.10;127.75;;;18.60;75.10;;;;;;5112592;28;20543;-75
2022/11/14 11:40:50;;;;;;;398.48;136.18;;;18.90;73.40;;;;;;5112826;28;20097;-75
2022/11/14 11:43:34;;;;;;;411.15;141.05;;;18.80;71.40;;;;;;5106363;28;20054;-76
2022/11/14 11:46:25;;;;;;;399.70;136.98;;;18.30;72.70;;;;;;5095186;28;20071;-75
2022/11/14 11:49:41;;;;;;;414.23;143.10;;;17.80;74.10;;;;;;5108254;28;20543;-75
2022/11/14 11:52:40;;;;;;;393.23;137.50;;;16.80;79.70;;;;;;5118814;27;20052;-75
2022/11/14 11:55:39;;;;;;;390.05;139.73;;;16.40;82.50;;;;;;5136384;27;20553;-75
2022/11/14 11:58:34;;;;;;;404.92;140.88;;;16.20;82.70;;;;;;5095676;28;20092;-74
2022/11/14 12:01:18;;;;;;;433.00;143.93;;;15.80;84.70;;;;;;5097095;28;20042;-76
2022/11/14 12:04:03;;;;;;;412.92;143.43;;;15.50;88.70;;;;;;5113924;28;20547;-76
2022/11/14 12:07:24;;;;;;;457.13;151.90;;;15.40;90.80;;;;;;5115622;28;20042;-76
2022/11/14 12:10:21;;;;;;;419.30;139.90;;;15.40;91.30;;;;;;5114235;28;20396;-75
2022/11/14 12:13:35;;;;;;;391.92;134.15;;;15.60;90.40;;;;;;5099021;28;20061;-75
2022/11/14 12:16:39;;;;;;;339.38;119.35;;;16.00;91.90;;;;;;5102917;28;20491;-76
2022/11/14 12:19:38;;;;;;;260.27;90.63;;;16.90;86.40;;;;;;5109139;28;20042;-75
2022/11/14 12:22:34;;;;;;;282.75;103.15;;;17.40;83.30;;;;;;5108973;28;20062;-76
2022/11/14 12:25:41;;;;;;;237.85;88.28;;;17.80;78.50;;;;;;5095762;28;20145;-76
2022/11/14 12:28:59;;;;;;;252.15;90.00;;;18.60;74.40;;;;;;5102108;28;20388;-76
2022/11/14 12:31:45;;;;;;;274.70;95.50;;;18.60;72.50;;;;;;5104726;28;20043;-76
2022/11/14 12:34:38;;;;;;;289.55;102.35;;;19.00;72.10;;;;;;5103668;28;20039;-76
2022/11/14 12:37:33;;;;;;;259.50;93.43;;;19.30;69.70;;;;;;5106652;27;20081;-76
2022/11/14 12:40:30;;;;;;;272.52;96.65;;;19.10;69.80;;;;;;5103474;27;20208;-76
2022/11/14 12:43:36;;;;;;;266.00;98.60;;;19.20;71.20;;;;;;5098020;28;20038;-76
2022/11/14 12:46:22;;;;;;;275.58;98.60;;;19.30;68.90;;;;;;5101784;28;20510;-76
2022/11/14 12:49:56;;;;;;;247.95;90.55;;;19.30;70.00;;;;;;5101336;28;20451;-76
2022/11/14 12:52:44;;;;;;;252.63;97.30;;;18.90;67.60;;;;;;5102978;28;20188;-76
2022/11/14 12:55:29;;;;;;;280.52;98.75;;;18.50;69.80;;;;;;5104296;28;20080;-76
2022/11/14 12:58:45;;;;;;;266.25;104.05;;;17.90;72.60;;;;;;5114329;28;20094;-76
2022/11/14 13:01:39;;;;;;;268.80;106.05;;;17.40;74.10;;;;;;5076890;28;20043;-76
2022/11/14 13:04:41;;;;;;;271.33;102.07;;;17.10;77.00;;;;;;5092867;28;20039;-76
2022/11/14 13:07:51;;;;;;;278.92;105.80;;;17.20;76.60;;;;;;5093095;28;20042;-76
2022/11/14 13:10:40;;;;;;;279.42;105.47;;;17.10;77.70;;;;;;5105981;28;20079;-76
2022/11/14 13:22:47;;;;;;;299.95;106.72;;;16.20;84.50;;;;;;5094289;28;20062;-75
2022/11/14 13:25:31;;;;;;;275.30;103.78;;;16.20;85.80;;;;;;5081807;28;20406;-75
2022/11/14 13:28:35;;;;;;;363.30;125.82;;;16.20;85.30;;;;;;5079876;28;20528;-75
2022/11/14 13:31:40;;;;;;;386.00;132.35;;;16.50;85.80;;;;;;5085098;28;20058;-76
2022/11/14 13:34:48;;;;;;;416.70;140.88;;;16.60;86.20;;;;;;5086115;28;20040;-75
2022/11/14 13:37:51;;;;;;;430.25;144.32;;;16.50;85.60;;;;;;5085518;28;20489;-75
2022/11/14 13:40:43;;;;;;;455.25;152.18;;;16.50;87.40;;;;;;5069215;28;20120;-75
2022/11/14 13:43:37;;;;;;;486.40;157.10;;;16.40;88.80;;;;;;5084592;28;20497;-76
2022/11/14 13:46:32;;;;;;;504.77;165.48;;;16.30;89.20;;;;;;5079172;28;20087;-75
2022/11/14 13:49:26;;;;;;;527.50;168.43;;;16.20;88.70;;;;;;5079054;28;20043;-75
2022/11/14 13:52:12;;;;;;;531.10;175.85;;;15.90;90.70;;;;;;5090158;28;20043;-75
2022/11/14 13:54:57;;;;;;;514.65;174.27;;;15.70;91.50;;;;;;5087383;28;20071;-75
2022/11/14 13:58:08;;;;;;;542.70;179.20;;;15.70;92.20;;;;;;5088844;28;20058;-75
2022/11/14 14:01:19;;;;;;;544.83;187.90;;;15.60;92.70;;;;;;5079053;28;20083;-75
2022/11/14 14:04:19;;;;;;;542.10;187.48;;;15.30;93.20;;;;;;5108287;28;20045;-75
2022/11/14 14:07:24;;;;;;;532.58;182.48;;;15.40;93.20;;;;;;5094830;28;20093;-75
2022/11/14 14:10:40;;;;;;;547.72;190.02;;;15.40;92.90;;;;;;5094812;28;20085;-75
2022/11/14 14:14:15;;;;;;;539.90;191.80;;;15.20;93.60;;;;;;5070621;28;20047;-75
2022/11/14 14:17:14;;;;;;;558.40;194.73;;;14.70;95.00;;;;;;5059485;28;20047;-75
2022/11/14 14:20:17;;;;;;;570.47;210.73;;;14.70;95.90;;;;;;5084093;28;20185;-75